sensor_id;sensor_type;location;lat;lon;timestamp;pressure;altitude;pressure_sealevel;temperature;humidity
56052;BME280;41919;42.648;23.384;2023-04-30T00:02:18;94278.72;;;11.65;75.85
56052;BME280;41919;42.648;23.384;2023-04-30T00:04:43;94261.19;;;11.47;75.92
56052;BME280;41919;42.648;23.384;2023-04-30T00:07:08;94254.94;;;11.48;75.30
56052;BME280;41919;42.648;23.384;2023-04-30T00:09:34;94213.16;;;11.16;74.93
56052;BME280;41919;42.648;23.384;2023-04-30T00:11:59;94210.78;;;11.14;74.54
56052;BME280;41919;42.648;23.384;2023-04-30T00:14:25;94247.94;;;11.42;74.55
56052;BME280;41919;42.648;23.384;2023-04-30T00:16:50;94274.00;;;11.55;74.46
56052;BME280;41919;42.648;23.384;2023-04-30T00:19:16;94231.63;;;11.21;74.54
56052;BME280;41919;42.648;23.384;2023-04-30T00:21:41;94262.78;;;11.48;74.50
56052;BME280;41919;42.648;23.384;2023-04-30T00:24:07;94204.69;;;11.21;74.39
56052;BME280;41919;42.648;23.384;2023-04-30T00:26:32;94272.69;;;11.64;73.59
56052;BME280;41919;42.648;23.384;2023-04-30T00:28:57;94267.88;;;11.61;73.71
56052;BME280;41919;42.648;23.384;2023-04-30T00:31:23;94199.88;;;11.17;72.94
56052;BME280;41919;42.648;23.384;2023-04-30T00:33:48;94207.09;;;11.22;72.55
56052;BME280;41919;42.648;23.384;2023-04-30T00:36:14;94234.69;;;11.36;72.57
56052;BME280;41919;42.648;23.384;2023-04-30T00:38:39;94227.88;;;11.35;72.15
56052;BME280;41919;42.648;23.384;2023-04-30T00:41:05;94216.09;;;11.26;72.10
56052;BME280;41919;42.648;23.384;2023-04-30T00:43:30;94210.28;;;11.24;72.46
56052;BME280;41919;42.648;23.384;2023-04-30T00:45:56;94242.50;;;11.43;72.64
56052;BME280;41919;42.648;23.384;2023-04-30T00:48:23;94220.75;;;11.24;71.40
56052;BME280;41919;42.648;23.384;2023-04-30T00:50:49;94269.19;;;11.52;71.58
56052;BME280;41919;42.648;23.384;2023-04-30T00:53:14;94272.31;;;11.17;71.98
56052;BME280;41919;42.648;23.384;2023-04-30T00:55:41;94109.88;;;10.06;72.51
56052;BME280;41919;42.648;23.384;2023-04-30T00:58:08;94271.81;;;11.02;73.00
56052;BME280;41919;42.648;23.384;2023-04-30T01:00:34;94213.63;;;10.56;73.66
56052;BME280;41919;42.648;23.384;2023-04-30T01:03:00;94266.28;;;10.91;73.90
56052;BME280;41919;42.648;23.384;2023-04-30T01:05:25;94273.88;;;10.93;74.06
56052;BME280;41919;42.648;23.384;2023-04-30T01:07:51;94109.41;;;9.84;72.34
56052;BME280;41919;42.648;23.384;2023-04-30T01:10:18;94273.94;;;10.54;72.84
56052;BME280;41919;42.648;23.384;2023-04-30T01:13:06;94273.09;;;10.15;74.70
56052;BME280;41919;42.648;23.384;2023-04-30T01:18:23;94267.91;;;9.44;78.57
56052;BME280;41919;42.648;23.384;2023-04-30T01:20:55;94205.38;;;9.03;78.86
56052;BME280;41919;42.648;23.384;2023-04-30T01:28:43;94228.97;;;9.49;77.54
56052;BME280;41919;42.648;23.384;2023-04-30T01:31:12;94222.56;;;9.45;77.46
56052;BME280;41919;42.648;23.384;2023-04-30T01:33:38;94229.13;;;9.60;76.69
56052;BME280;41919;42.648;23.384;2023-04-30T01:36:09;94276.16;;;9.99;75.90
56052;BME280;41919;42.648;23.384;2023-04-30T01:39:18;94268.78;;;9.96;75.46
56052;BME280;41919;42.648;23.384;2023-04-30T01:47:44;94279.06;;;9.84;74.86
56052;BME280;41919;42.648;23.384;2023-04-30T01:50:33;94273.47;;;9.60;76.13
56052;BME280;41919;42.648;23.384;2023-04-30T01:53:06;94194.97;;;8.83;77.26
56052;BME280;41919;42.648;23.384;2023-04-30T01:55:42;94263.31;;;9.19;78.28
56052;BME280;41919;42.648;23.384;2023-04-30T01:58:14;94277.34;;;9.31;77.97
56052;BME280;41919;42.648;23.384;2023-04-30T02:00:41;94262.47;;;9.32;77.32
56052;BME280;41919;42.648;23.384;2023-04-30T02:03:06;94245.66;;;9.28;77.53
56052;BME280;41919;42.648;23.384;2023-04-30T02:05:32;94211.56;;;9.16;76.88
56052;BME280;41919;42.648;23.384;2023-04-30T02:07:57;94257.84;;;9.54;76.30
56052;BME280;41919;42.648;23.384;2023-04-30T02:10:24;94194.13;;;9.23;76.19
56052;BME280;41919;42.648;23.384;2023-04-30T02:12:51;94147.47;;;8.88;75.84
56052;BME280;41919;42.648;23.384;2023-04-30T02:15:16;94262.72;;;9.30;76.48
56052;BME280;41919;42.648;23.384;2023-04-30T02:17:42;94269.75;;;9.10;77.87
56052;BME280;41919;42.648;23.384;2023-04-30T02:20:08;94199.34;;;8.43;80.11
56052;BME280;41919;42.648;23.384;2023-04-30T02:22:34;94266.72;;;8.79;80.98
56052;BME280;41919;42.648;23.384;2023-04-30T02:25:00;94224.19;;;8.46;82.15
56052;BME280;41919;42.648;23.384;2023-04-30T02:27:26;94262.66;;;8.43;84.30
56052;BME280;41919;42.648;23.384;2023-04-30T02:29:52;94219.53;;;8.28;83.54
56052;BME280;41919;42.648;23.384;2023-04-30T02:32:18;94266.72;;;8.73;83.15
56052;BME280;41919;42.648;23.384;2023-04-30T02:34:44;94219.34;;;8.36;83.14
56052;BME280;41919;42.648;23.384;2023-04-30T02:37:09;94247.66;;;8.66;83.01
56052;BME280;41919;42.648;23.384;2023-04-30T02:39:35;94275.16;;;8.88;82.44
56052;BME280;41919;42.648;23.384;2023-04-30T02:42:00;94219.81;;;8.59;81.54
56052;BME280;41919;42.648;23.384;2023-04-30T02:44:26;94261.13;;;8.82;81.44
56052;BME280;41919;42.648;23.384;2023-04-30T02:46:51;94202.72;;;8.37;82.42
56052;BME280;41919;42.648;23.384;2023-04-30T02:49:17;94195.69;;;8.17;83.13
56052;BME280;41919;42.648;23.384;2023-04-30T02:51:42;94266.69;;;8.46;83.58
56052;BME280;41919;42.648;23.384;2023-04-30T02:54:08;94273.47;;;8.47;83.89
56052;BME280;41919;42.648;23.384;2023-04-30T02:56:33;94150.91;;;7.54;84.12
56052;BME280;41919;42.648;23.384;2023-04-30T02:58:59;94200.00;;;7.83;84.57
56052;BME280;41919;42.648;23.384;2023-04-30T03:01:25;94210.00;;;7.80;85.32
56052;BME280;41919;42.648;23.384;2023-04-30T03:03:50;94295.41;;;8.24;85.86
56052;BME280;41919;42.648;23.384;2023-04-30T03:06:16;94281.59;;;8.17;85.23
56052;BME280;41919;42.648;23.384;2023-04-30T03:08:41;94231.28;;;7.97;84.79
56052;BME280;41919;42.648;23.384;2023-04-30T03:11:07;94218.03;;;7.92;83.90
56052;BME280;41919;42.648;23.384;2023-04-30T03:13:32;94297.06;;;8.39;84.18
56052;BME280;41919;42.648;23.384;2023-04-30T03:16:01;94296.06;;;8.27;84.70
56052;BME280;41919;42.648;23.384;2023-04-30T03:18:29;94304.84;;;8.19;85.49
56052;BME280;41919;42.648;23.384;2023-04-30T03:20:55;94278.09;;;7.97;86.54
56052;BME280;41919;42.648;23.384;2023-04-30T03:23:21;94243.13;;;7.58;88.31
56052;BME280;41919;42.648;23.384;2023-04-30T03:25:46;94298.94;;;7.97;88.68
56052;BME280;41919;42.648;23.384;2023-04-30T03:28:12;94292.09;;;7.89;89.00
56052;BME280;41919;42.648;23.384;2023-04-30T03:30:38;94278.41;;;7.80;88.89
56052;BME280;41919;42.648;23.384;2023-04-30T03:33:03;94303.75;;;8.00;88.42
56052;BME280;41919;42.648;23.384;2023-04-30T03:35:32;94241.31;;;7.58;88.82
56052;BME280;41919;42.648;23.384;2023-04-30T03:37:59;94240.97;;;7.68;88.19
56052;BME280;41919;42.648;23.384;2023-04-30T03:40:25;94274.66;;;7.83;89.21
56052;BME280;41919;42.648;23.384;2023-04-30T03:42:50;94304.13;;;7.90;90.25
56052;BME280;41919;42.648;23.384;2023-04-30T03:45:16;94314.09;;;7.87;91.08
56052;BME280;41919;42.648;23.384;2023-04-30T03:47:42;94241.84;;;7.40;90.41
56052;BME280;41919;42.648;23.384;2023-04-30T03:50:08;94241.06;;;7.46;89.65
56052;BME280;41919;42.648;23.384;2023-04-30T03:52:33;94313.34;;;7.99;89.41
56052;BME280;41919;42.648;23.384;2023-04-30T03:55:01;94269.19;;;7.71;88.42
56052;BME280;41919;42.648;23.384;2023-04-30T03:57:26;94320.66;;;8.24;88.49
56052;BME280;41919;42.648;23.384;2023-04-30T03:59:52;94329.47;;;8.30;87.28
56052;BME280;41919;42.648;23.384;2023-04-30T04:02:17;94326.31;;;8.41;86.27
56052;BME280;41919;42.648;23.384;2023-04-30T04:04:43;94266.75;;;8.11;84.95
56052;BME280;41919;42.648;23.384;2023-04-30T04:07:08;94320.97;;;8.49;84.86
56052;BME280;41919;42.648;23.384;2023-04-30T04:09:35;94307.34;;;8.47;84.76
56052;BME280;41919;42.648;23.384;2023-04-30T04:12:01;94227.66;;;7.91;85.22
56052;BME280;41919;42.648;23.384;2023-04-30T04:14:27;94262.56;;;8.17;84.77
56052;BME280;41919;42.648;23.384;2023-04-30T04:16:52;94275.22;;;8.33;84.90
56052;BME280;41919;42.648;23.384;2023-04-30T04:19:17;94332.06;;;8.78;84.71
56052;BME280;41919;42.648;23.384;2023-04-30T04:21:43;94278.69;;;8.47;84.97
56052;BME280;41919;42.648;23.384;2023-04-30T04:24:09;94327.25;;;8.81;85.12
56052;BME280;41919;42.648;23.384;2023-04-30T04:26:35;94347.13;;;9.02;84.39
56052;BME280;41919;42.648;23.384;2023-04-30T04:29:01;94331.72;;;9.21;83.78
56052;BME280;41919;42.648;23.384;2023-04-30T04:31:28;94324.28;;;9.25;82.98
56052;BME280;41919;42.648;23.384;2023-04-30T04:33:54;94329.09;;;9.48;81.73
56052;BME280;41919;42.648;23.384;2023-04-30T04:36:24;94281.75;;;8.97;82.95
56052;BME280;41919;42.648;23.384;2023-04-30T04:38:52;94354.56;;;9.19;84.51
56052;BME280;41919;42.648;23.384;2023-04-30T04:41:17;94323.28;;;9.19;84.40
56052;BME280;41919;42.648;23.384;2023-04-30T04:43:43;94325.28;;;9.30;83.40
56052;BME280;41919;42.648;23.384;2023-04-30T04:46:08;94271.16;;;9.06;84.53
56052;BME280;41919;42.648;23.384;2023-04-30T04:48:33;94344.13;;;9.39;82.80
56052;BME280;41919;42.648;23.384;2023-04-30T04:50:59;94350.16;;;9.53;82.28
56052;BME280;41919;42.648;23.384;2023-04-30T04:53:25;94282.38;;;9.19;81.17
56052;BME280;41919;42.648;23.384;2023-04-30T04:55:50;94357.97;;;9.73;81.64
56052;BME280;41919;42.648;23.384;2023-04-30T04:58:16;94334.06;;;9.62;80.38
56052;BME280;41919;42.648;23.384;2023-04-30T05:00:42;94352.75;;;9.73;80.01
56052;BME280;41919;42.648;23.384;2023-04-30T05:03:07;94362.75;;;9.76;80.77
56052;BME280;41919;42.648;23.384;2023-04-30T05:05:34;94360.56;;;9.79;80.30
56052;BME280;41919;42.648;23.384;2023-04-30T05:07:59;94366.34;;;9.95;80.43
56052;BME280;41919;42.648;23.384;2023-04-30T05:10:24;94282.97;;;9.41;80.87
56052;BME280;41919;42.648;23.384;2023-04-30T05:12:50;94362.16;;;9.94;81.52
56052;BME280;41919;42.648;23.384;2023-04-30T05:15:15;94342.84;;;10.01;81.37
56052;BME280;41919;42.648;23.384;2023-04-30T05:17:41;94365.28;;;10.16;81.29
56052;BME280;41919;42.648;23.384;2023-04-30T05:20:07;94366.88;;;10.24;79.97
56052;BME280;41919;42.648;23.384;2023-04-30T05:22:33;94292.53;;;9.74;78.93
56052;BME280;41919;42.648;23.384;2023-04-30T05:24:58;94293.28;;;9.88;78.26
56052;BME280;41919;42.648;23.384;2023-04-30T05:27:24;94290.25;;;9.98;77.80
56052;BME280;41919;42.648;23.384;2023-04-30T05:29:49;94296.22;;;10.18;78.07
56052;BME280;41919;42.648;23.384;2023-04-30T05:32:14;94295.75;;;10.28;77.26
56052;BME280;41919;42.648;23.384;2023-04-30T05:34:40;94355.31;;;10.65;78.69
56052;BME280;41919;42.648;23.384;2023-04-30T05:37:05;94277.50;;;10.21;77.18
56052;BME280;41919;42.648;23.384;2023-04-30T05:39:31;94361.22;;;10.85;76.20
56052;BME280;41919;42.648;23.384;2023-04-30T05:41:56;94358.81;;;11.15;74.63
56052;BME280;41919;42.648;23.384;2023-04-30T05:44:22;94368.47;;;11.47;75.20
56052;BME280;41919;42.648;23.384;2023-04-30T05:46:47;94364.06;;;11.66;74.74
56052;BME280;41919;42.648;23.384;2023-04-30T05:49:12;94293.13;;;11.30;72.79
56052;BME280;41919;42.648;23.384;2023-04-30T05:51:38;94358.94;;;11.77;72.85
56052;BME280;41919;42.648;23.384;2023-04-30T05:54:03;94288.66;;;11.56;71.75
56052;BME280;41919;42.648;23.384;2023-04-30T05:56:29;94305.69;;;11.65;71.51
56052;BME280;41919;42.648;23.384;2023-04-30T05:58:54;94312.63;;;11.78;71.37
56052;BME280;41919;42.648;23.384;2023-04-30T06:01:20;94292.59;;;11.65;71.28
56052;BME280;41919;42.648;23.384;2023-04-30T06:03:45;94359.59;;;12.16;70.19
56052;BME280;41919;42.648;23.384;2023-04-30T06:06:11;94368.75;;;12.44;69.30
56052;BME280;41919;42.648;23.384;2023-04-30T06:08:36;94301.88;;;12.23;67.25
56052;BME280;41919;42.648;23.384;2023-04-30T06:11:02;94311.25;;;12.49;66.25
56052;BME280;41919;42.648;23.384;2023-04-30T06:13:30;94315.53;;;12.62;65.86
56052;BME280;41919;42.648;23.384;2023-04-30T06:15:56;94365.78;;;13.20;64.51
56052;BME280;41919;42.648;23.384;2023-04-30T06:18:21;94354.56;;;13.12;64.61
56052;BME280;41919;42.648;23.384;2023-04-30T06:20:47;94349.47;;;13.29;64.47
56052;BME280;41919;42.648;23.384;2023-04-30T06:23:12;94355.56;;;13.42;64.33
56052;BME280;41919;42.648;23.384;2023-04-30T06:25:38;94332.28;;;13.33;63.22
56052;BME280;41919;42.648;23.384;2023-04-30T06:28:03;94380.50;;;13.75;62.00
56052;BME280;41919;42.648;23.384;2023-04-30T06:30:30;94364.06;;;13.79;61.69
56052;BME280;41919;42.648;23.384;2023-04-30T06:32:56;94307.88;;;13.45;60.21
56052;BME280;41919;42.648;23.384;2023-04-30T06:35:21;94362.47;;;13.90;59.62
56052;BME280;41919;42.648;23.384;2023-04-30T06:37:47;94326.38;;;13.85;59.45
56052;BME280;41919;42.648;23.384;2023-04-30T06:40:12;94326.25;;;13.92;59.07
56052;BME280;41919;42.648;23.384;2023-04-30T06:42:38;94352.28;;;14.29;58.62
56052;BME280;41919;42.648;23.384;2023-04-30T06:45:03;94370.41;;;14.42;59.46
56052;BME280;41919;42.648;23.384;2023-04-30T06:47:32;94380.47;;;14.57;59.31
56052;BME280;41919;42.648;23.384;2023-04-30T06:50:03;94360.31;;;14.63;59.51
56052;BME280;41919;42.648;23.384;2023-04-30T06:52:29;94382.63;;;15.01;58.91
56052;BME280;41919;42.648;23.384;2023-04-30T06:54:55;94321.59;;;15.33;57.00
56052;BME280;41919;42.648;23.384;2023-04-30T06:57:20;94286.47;;;15.10;56.25
56052;BME280;41919;42.648;23.384;2023-04-30T06:59:46;94379.72;;;15.94;55.54
56052;BME280;41919;42.648;23.384;2023-04-30T07:02:12;94389.94;;;15.90;55.49
56052;BME280;41919;42.648;23.384;2023-04-30T07:04:37;94350.00;;;15.98;53.78
56052;BME280;41919;42.648;23.384;2023-04-30T07:07:03;94366.84;;;16.36;53.45
56052;BME280;41919;42.648;23.384;2023-04-30T07:09:28;94377.00;;;16.66;52.41
56052;BME280;41919;42.648;23.384;2023-04-30T07:11:54;94381.16;;;16.40;53.25
56052;BME280;41919;42.648;23.384;2023-04-30T07:14:20;94374.19;;;16.51;52.73
56052;BME280;41919;42.648;23.384;2023-04-30T07:16:45;94355.03;;;16.00;54.04
56052;BME280;41919;42.648;23.384;2023-04-30T07:19:13;94380.00;;;15.97;54.66
56052;BME280;41919;42.648;23.384;2023-04-30T07:21:39;94354.53;;;15.52;55.31
56052;BME280;41919;42.648;23.384;2023-04-30T07:24:04;94329.16;;;15.80;54.46
56052;BME280;41919;42.648;23.384;2023-04-30T07:26:30;94325.47;;;15.98;53.68
56052;BME280;41919;42.648;23.384;2023-04-30T07:28:55;94372.91;;;16.15;53.74
56052;BME280;41919;42.648;23.384;2023-04-30T07:31:21;94346.13;;;16.23;53.17
56052;BME280;41919;42.648;23.384;2023-04-30T07:33:46;94333.66;;;16.18;52.71
56052;BME280;41919;42.648;23.384;2023-04-30T07:36:12;94314.25;;;16.24;52.82
56052;BME280;41919;42.648;23.384;2023-04-30T07:38:38;94374.94;;;16.74;52.56
56052;BME280;41919;42.648;23.384;2023-04-30T07:41:03;94391.25;;;16.88;51.88
56052;BME280;41919;42.648;23.384;2023-04-30T07:43:29;94376.72;;;16.68;52.09
56052;BME280;41919;42.648;23.384;2023-04-30T07:45:55;94341.16;;;16.26;51.96
56052;BME280;41919;42.648;23.384;2023-04-30T07:48:20;94392.13;;;16.32;52.87
56052;BME280;41919;42.648;23.384;2023-04-30T07:50:47;94329.53;;;16.05;52.75
56052;BME280;41919;42.648;23.384;2023-04-30T07:53:12;94328.34;;;15.96;52.80
56052;BME280;41919;42.648;23.384;2023-04-30T07:55:38;94390.72;;;16.46;52.11
56052;BME280;41919;42.648;23.384;2023-04-30T07:58:03;94392.22;;;16.20;52.65
56052;BME280;41919;42.648;23.384;2023-04-30T08:00:29;94400.03;;;16.32;52.50
56052;BME280;41919;42.648;23.384;2023-04-30T08:02:55;94375.75;;;16.30;52.51
56052;BME280;41919;42.648;23.384;2023-04-30T08:05:20;94366.72;;;16.26;52.73
56052;BME280;41919;42.648;23.384;2023-04-30T08:07:46;94380.41;;;16.45;51.80
56052;BME280;41919;42.648;23.384;2023-04-30T08:10:11;94391.69;;;16.62;50.93
56052;BME280;41919;42.648;23.384;2023-04-30T08:12:37;94319.66;;;16.57;51.14
56052;BME280;41919;42.648;23.384;2023-04-30T08:15:04;94383.69;;;17.23;48.73
56052;BME280;41919;42.648;23.384;2023-04-30T08:17:31;94391.41;;;17.57;47.88
56052;BME280;41919;42.648;23.384;2023-04-30T08:19:56;94400.75;;;17.97;47.50
56052;BME280;41919;42.648;23.384;2023-04-30T08:22:22;94334.88;;;17.91;47.04
56052;BME280;41919;42.648;23.384;2023-04-30T08:24:48;94371.50;;;18.57;46.66
56052;BME280;41919;42.648;23.384;2023-04-30T08:27:14;94310.59;;;18.52;45.07
56052;BME280;41919;42.648;23.384;2023-04-30T08:29:40;94382.19;;;18.83;43.22
56052;BME280;41919;42.648;23.384;2023-04-30T08:32:05;94324.59;;;18.52;43.54
56052;BME280;41919;42.648;23.384;2023-04-30T08:34:31;94327.03;;;18.59;43.91
56052;BME280;41919;42.648;23.384;2023-04-30T08:36:56;94358.38;;;18.83;43.43
56052;BME280;41919;42.648;23.384;2023-04-30T08:39:23;94330.66;;;18.42;43.62
56052;BME280;41919;42.648;23.384;2023-04-30T08:41:54;94322.91;;;17.83;44.21
56052;BME280;41919;42.648;23.384;2023-04-30T08:44:21;94391.44;;;18.27;44.45
56052;BME280;41919;42.648;23.384;2023-04-30T08:46:52;94371.75;;;18.08;46.79
56052;BME280;41919;42.648;23.384;2023-04-30T08:49:18;94323.38;;;17.75;47.86
56052;BME280;41919;42.648;23.384;2023-04-30T08:51:45;94356.56;;;17.93;48.07
56052;BME280;41919;42.648;23.384;2023-04-30T08:54:12;94377.50;;;17.99;47.56
56052;BME280;41919;42.648;23.384;2023-04-30T08:56:39;94383.84;;;17.98;46.90
56052;BME280;41919;42.648;23.384;2023-04-30T08:59:05;94322.78;;;17.62;46.95
56052;BME280;41919;42.648;23.384;2023-04-30T09:01:33;94382.41;;;18.23;46.72
56052;BME280;41919;42.648;23.384;2023-04-30T09:03:59;94376.63;;;18.26;46.38
56052;BME280;41919;42.648;23.384;2023-04-30T09:06:24;94335.59;;;18.23;45.25
56052;BME280;41919;42.648;23.384;2023-04-30T09:08:51;94305.47;;;18.25;44.88
56052;BME280;41919;42.648;23.384;2023-04-30T09:11:30;94362.41;;;19.00;42.79
56052;BME280;41919;42.648;23.384;2023-04-30T09:14:00;94353.75;;;19.56;42.03
56052;BME280;41919;42.648;23.384;2023-04-30T09:16:28;94355.28;;;20.45;41.00
56052;BME280;41919;42.648;23.384;2023-04-30T09:18:58;94306.72;;;20.99;38.07
56052;BME280;41919;42.648;23.384;2023-04-30T09:21:34;94336.25;;;21.77;38.19
56052;BME280;41919;42.648;23.384;2023-04-30T09:24:02;94334.94;;;21.74;36.01
56052;BME280;41919;42.648;23.384;2023-04-30T09:26:36;94283.94;;;20.88;36.37
56052;BME280;41919;42.648;23.384;2023-04-30T09:29:03;94338.75;;;20.58;37.32
56052;BME280;41919;42.648;23.384;2023-04-30T09:31:33;94332.31;;;20.80;38.78
56052;BME280;41919;42.648;23.384;2023-04-30T09:34:00;94289.06;;;21.19;36.88
56052;BME280;41919;42.648;23.384;2023-04-30T09:36:25;94280.88;;;21.49;35.80
56052;BME280;41919;42.648;23.384;2023-04-30T09:38:52;94309.81;;;21.56;34.80
56052;BME280;41919;42.648;23.384;2023-04-30T09:41:25;94281.69;;;21.79;35.29
56052;BME280;41919;42.648;23.384;2023-04-30T09:43:52;94320.22;;;22.40;34.31
56052;BME280;41919;42.648;23.384;2023-04-30T09:46:20;94258.22;;;21.86;33.58
56052;BME280;41919;42.648;23.384;2023-04-30T09:48:46;94303.91;;;22.47;33.36
56052;BME280;41919;42.648;23.384;2023-04-30T09:51:11;94316.75;;;22.40;33.97
56052;BME280;41919;42.648;23.384;2023-04-30T09:53:38;94258.66;;;21.69;34.02
56052;BME280;41919;42.648;23.384;2023-04-30T09:56:06;94304.72;;;22.18;33.68
56052;BME280;41919;42.648;23.384;2023-04-30T09:58:36;94316.59;;;22.02;33.79
56052;BME280;41919;42.648;23.384;2023-04-30T10:01:07;94261.47;;;21.78;33.60
56052;BME280;41919;42.648;23.384;2023-04-30T10:03:37;94296.25;;;22.11;33.28
56052;BME280;41919;42.648;23.384;2023-04-30T10:06:04;94310.16;;;22.08;33.69
56052;BME280;41919;42.648;23.384;2023-04-30T10:08:33;94315.59;;;21.98;34.14
56052;BME280;41919;42.648;23.384;2023-04-30T10:11:04;94297.63;;;21.84;34.36
56052;BME280;41919;42.648;23.384;2023-04-30T10:13:34;94306.59;;;21.59;34.81
56052;BME280;41919;42.648;23.384;2023-04-30T10:16:06;94294.50;;;21.77;34.73
56052;BME280;41919;42.648;23.384;2023-04-30T10:18:41;94264.13;;;21.14;34.64
56052;BME280;41919;42.648;23.384;2023-04-30T10:21:11;94242.56;;;20.76;33.98
56052;BME280;41919;42.648;23.384;2023-04-30T10:23:38;94283.03;;;21.08;34.33
56052;BME280;41919;42.648;23.384;2023-04-30T10:26:09;94253.91;;;20.92;35.26
56052;BME280;41919;42.648;23.384;2023-04-30T10:28:36;94283.13;;;20.92;36.18
56052;BME280;41919;42.648;23.384;2023-04-30T10:31:03;94277.63;;;20.79;35.85
56052;BME280;41919;42.648;23.384;2023-04-30T10:33:39;94315.34;;;20.81;36.32
56052;BME280;41919;42.648;23.384;2023-04-30T10:36:11;94329.03;;;20.28;37.73
56052;BME280;41919;42.648;23.384;2023-04-30T10:38:37;94256.50;;;19.11;39.40
56052;BME280;41919;42.648;23.384;2023-04-30T10:41:06;94336.50;;;19.54;40.57
56052;BME280;41919;42.648;23.384;2023-04-30T10:43:34;94326.28;;;18.79;42.25
56052;BME280;41919;42.648;23.384;2023-04-30T10:46:00;94330.72;;;18.00;46.51
56052;BME280;41919;42.648;23.384;2023-04-30T10:48:27;94336.72;;;17.58;50.60
56052;BME280;41919;42.648;23.384;2023-04-30T10:50:58;94289.19;;;16.93;53.55
56052;BME280;41919;42.648;23.384;2023-04-30T10:53:24;94267.31;;;16.49;57.67
56052;BME280;41919;42.648;23.384;2023-04-30T10:55:52;94257.44;;;16.39;60.04
56052;BME280;41919;42.648;23.384;2023-04-30T10:58:34;94275.22;;;16.76;59.69
56052;BME280;41919;42.648;23.384;2023-04-30T11:01:16;94322.47;;;17.27;59.79
56052;BME280;41919;42.648;23.384;2023-04-30T11:04:02;94266.84;;;17.38;57.76
56052;BME280;41919;42.648;23.384;2023-04-30T11:06:53;94332.22;;;18.38;55.46
56052;BME280;41919;42.648;23.384;2023-04-30T11:09:33;94325.03;;;18.29;50.92
56052;BME280;41919;42.648;23.384;2023-04-30T11:12:02;94327.41;;;18.20;49.70
56052;BME280;41919;42.648;23.384;2023-04-30T11:14:31;94267.63;;;17.76;47.75
56052;BME280;41919;42.648;23.384;2023-04-30T11:16:58;94322.91;;;18.20;48.59
56052;BME280;41919;42.648;23.384;2023-04-30T11:19:26;94281.44;;;18.36;48.18
56052;BME280;41919;42.648;23.384;2023-04-30T11:29:49;94263.06;;;18.83;45.31
56052;BME280;41919;42.648;23.384;2023-04-30T11:32:18;94255.09;;;18.72;44.17
56052;BME280;41919;42.648;23.384;2023-04-30T11:34:44;94320.88;;;19.22;42.66
56052;BME280;41919;42.648;23.384;2023-04-30T11:37:18;94289.59;;;19.13;42.54
56052;BME280;41919;42.648;23.384;2023-04-30T11:39:45;94256.47;;;18.95;42.60
56052;BME280;41919;42.648;23.384;2023-04-30T11:42:17;94323.53;;;19.47;42.65
56052;BME280;41919;42.648;23.384;2023-04-30T11:44:43;94314.97;;;18.89;43.64
56052;BME280;41919;42.648;23.384;2023-04-30T11:47:13;94301.63;;;18.58;44.24
56052;BME280;41919;42.648;23.384;2023-04-30T11:49:42;94324.91;;;18.56;46.79
56052;BME280;41919;42.648;23.384;2023-04-30T11:52:08;94292.56;;;18.33;46.36
56052;BME280;41919;42.648;23.384;2023-04-30T11:54:37;94298.31;;;18.20;47.99
56052;BME280;41919;42.648;23.384;2023-04-30T11:57:03;94334.34;;;18.36;48.62
56052;BME280;41919;42.648;23.384;2023-04-30T11:59:30;94332.84;;;18.08;48.84
56052;BME280;41919;42.648;23.384;2023-04-30T12:01:56;94314.34;;;18.08;49.97
56052;BME280;41919;42.648;23.384;2023-04-30T12:04:23;94288.25;;;17.79;49.70
56052;BME280;41919;42.648;23.384;2023-04-30T12:06:48;94319.72;;;18.18;48.41
56052;BME280;41919;42.648;23.384;2023-04-30T12:09:14;94233.47;;;17.70;50.17
56052;BME280;41919;42.648;23.384;2023-04-30T12:11:39;94320.25;;;18.20;51.38
56052;BME280;41919;42.648;23.384;2023-04-30T12:14:07;94249.22;;;17.49;50.37
56052;BME280;41919;42.648;23.384;2023-04-30T12:16:51;94316.53;;;17.79;52.47
56052;BME280;41919;42.648;23.384;2023-04-30T12:19:21;94330.19;;;17.66;51.43
56052;BME280;41919;42.648;23.384;2023-04-30T12:21:49;94332.56;;;17.30;51.04
56052;BME280;41919;42.648;23.384;2023-04-30T12:24:17;94337.09;;;17.07;51.10
56052;BME280;41919;42.648;23.384;2023-04-30T12:26:43;94346.09;;;16.84;50.84
56052;BME280;41919;42.648;23.384;2023-04-30T12:29:10;94347.44;;;16.64;52.33
56052;BME280;41919;42.648;23.384;2023-04-30T12:31:38;94366.75;;;16.48;52.61
56052;BME280;41919;42.648;23.384;2023-04-30T12:34:06;94341.94;;;16.27;55.61
56052;BME280;41919;42.648;23.384;2023-04-30T12:36:32;94358.13;;;16.14;61.64
56052;BME280;41919;42.648;23.384;2023-04-30T12:39:04;94315.59;;;15.54;63.95
56052;BME280;41919;42.648;23.384;2023-04-30T12:41:43;94280.81;;;15.35;63.73
56052;BME280;41919;42.648;23.384;2023-04-30T12:46:42;94299.19;;;15.01;65.25
56052;BME280;41919;42.648;23.384;2023-04-30T12:49:08;94275.13;;;14.93;67.86
56052;BME280;41919;42.648;23.384;2023-04-30T12:51:35;94316.38;;;15.04;71.02
56052;BME280;41919;42.648;23.384;2023-04-30T12:54:01;94311.56;;;15.01;72.92
56052;BME280;41919;42.648;23.384;2023-04-30T12:56:26;94341.34;;;15.18;69.32
56052;BME280;41919;42.648;23.384;2023-04-30T12:58:52;94340.06;;;15.04;75.31
56052;BME280;41919;42.648;23.384;2023-04-30T13:01:21;94273.53;;;14.63;76.01
56052;BME280;41919;42.648;23.384;2023-04-30T13:03:50;94345.47;;;15.14;76.36
56052;BME280;41919;42.648;23.384;2023-04-30T13:06:16;94267.03;;;14.65;78.29
56052;BME280;41919;42.648;23.384;2023-04-30T13:08:43;94339.63;;;14.95;80.34
56052;BME280;41919;42.648;23.384;2023-04-30T13:11:08;94337.72;;;14.90;76.49
56052;BME280;41919;42.648;23.384;2023-04-30T13:13:34;94338.84;;;14.95;73.73
56052;BME280;41919;42.648;23.384;2023-04-30T13:15:59;94322.31;;;14.99;76.13
56052;BME280;41919;42.648;23.384;2023-04-30T13:18:24;94257.75;;;14.63;71.45